Time;durP1;ratioP1;P1;durP2;ratioP2;P2;SDS_P1;SDS_P2;PMS_P1;PMS_P2;Temp;Humidity;BMP_temperature;BMP_pressure;BME280_temperature;BME280_humidity;BME280_pressure;Samples;Min_cycle;Max_cycle;Signal;HPM_P1;HPM_P2
2023/10/09 00:01:46;;;;;;;28.73;5.50;;;13.00;32.30;;;;;;5002280;28;46191;-81
2023/10/09 00:04:13;;;;;;;18.37;5.63;;;12.90;32.20;;;;;;5016039;28;48072;-81
2023/10/09 00:06:41;;;;;;;30.30;6.50;;;12.90;32.20;;;;;;4998177;28;46488;-80
2023/10/09 00:09:19;;;;;;;28.33;5.60;;;13.00;32.40;;;;;;4999671;28;45884;-81
2023/10/09 00:11:44;;;;;;;27.23;6.33;;;13.00;32.60;;;;;;5003320;28;46574;-81
2023/10/09 00:14:15;;;;;;;20.73;5.60;;;13.00;32.80;;;;;;5002030;28;47040;-80
2023/10/09 00:16:48;;;;;;;30.30;6.37;;;13.00;32.70;;;;;;5004524;28;46551;-82
2023/10/09 00:19:19;;;;;;;30.77;6.40;;;13.10;32.60;;;;;;5007559;28;46485;-81
2023/10/09 00:21:45;;;;;;;20.93;5.57;;;13.10;32.40;;;;;;5006631;28;46579;-82
2023/10/09 00:24:22;;;;;;;27.13;6.87;;;13.10;32.30;;;;;;5004074;28;48510;-80
2023/10/09 00:26:48;;;;;;;24.27;6.17;;;13.10;32.20;;;;;;5004303;28;46430;-81
2023/10/09 00:29:36;;;;;;;28.60;6.17;;;13.10;32.10;;;;;;5006094;28;46499;-81
2023/10/09 00:32:51;;;;;;;22.20;5.30;;;13.20;32.10;;;;;;5005594;28;46509;-83
2023/10/09 00:34:50;;;;;;;24.27;5.87;;;13.20;31.70;;;;;;5000951;28;48175;-80
2023/10/09 00:37:19;;;;;;;29.93;6.27;;;13.30;31.60;;;;;;5007222;28;46950;-81
2023/10/09 00:39:47;;;;;;;25.83;7.70;;;13.40;31.60;;;;;;4995675;28;46452;-81
2023/10/09 00:42:14;;;;;;;30.43;6.03;;;13.30;31.60;;;;;;5007751;28;46841;-81
2023/10/09 00:44:41;;;;;;;29.87;5.80;;;13.40;31.60;;;;;;5007761;28;46627;-80
2023/10/09 00:47:21;;;;;;;23.47;5.33;;;13.40;31.50;;;;;;5005831;28;46403;-82
2023/10/09 00:50:00;;;;;;;18.60;5.30;;;13.50;31.80;;;;;;5008342;28;46421;-81
2023/10/09 00:52:32;;;;;;;26.13;6.00;;;13.50;31.90;;;;;;5002997;28;46383;-81
2023/10/09 00:55:13;;;;;;;19.97;5.57;;;13.50;32.20;;;;;;5002058;28;46643;-81
2023/10/09 00:57:47;;;;;;;20.77;5.70;;;13.60;32.30;;;;;;5001453;28;46707;-81
2023/10/09 01:00:31;;;;;;;30.53;5.87;;;13.60;32.60;;;;;;4986844;28;46473;-79
2023/10/09 01:03:10;;;;;;;26.33;6.40;;;13.60;32.60;;;;;;5000765;28;46522;-80
2023/10/09 01:05:36;;;;;;;19.10;5.37;;;13.70;32.70;;;;;;5002787;28;46744;-82
2023/10/09 01:08:15;;;;;;;26.37;5.90;;;13.80;32.80;;;;;;5002848;28;46637;-82
2023/10/09 01:10:50;;;;;;;21.00;5.03;;;13.70;32.70;;;;;;5002365;28;46426;-81
2023/10/09 01:13:18;;;;;;;20.30;4.87;;;13.80;32.90;;;;;;5002306;28;46534;-82
2023/10/09 01:15:44;;;;;;;17.27;4.93;;;13.80;32.80;;;;;;4999064;28;48006;-81
2023/10/09 01:18:10;;;;;;;21.03;5.23;;;13.90;32.90;;;;;;5000811;28;46523;-79
2023/10/09 01:20:41;;;;;;;24.67;4.83;;;13.90;33.00;;;;;;5000751;28;46405;-82
2023/10/09 01:23:11;;;;;;;25.70;5.80;;;13.80;33.00;;;;;;5004180;28;46697;-83
2023/10/09 01:25:45;;;;;;;15.93;4.70;;;13.90;33.20;;;;;;5005605;28;48414;-83
2023/10/09 01:28:15;;;;;;;16.83;4.97;;;13.90;33.10;;;;;;5004125;28;46742;-81
2023/10/09 01:30:42;;;;;;;20.80;5.23;;;13.90;33.00;;;;;;5003614;28;46654;-81
2023/10/09 01:33:21;;;;;;;26.97;5.07;;;13.80;33.10;;;;;;5004959;28;45989;-81
2023/10/09 01:35:48;;;;;;;19.23;5.13;;;13.80;33.20;;;;;;5004494;28;48177;-84
2023/10/09 01:38:16;;;;;;;15.23;5.10;;;13.80;33.10;;;;;;5004521;28;46744;-82
2023/10/09 01:40:43;;;;;;;23.50;5.40;;;13.80;34.40;;;;;;4990910;28;47072;-81
2023/10/09 01:43:10;;;;;;;24.83;4.50;;;13.80;33.10;;;;;;5000999;28;46552;-81
2023/10/09 01:45:43;;;;;;;21.30;5.60;;;13.80;33.00;;;;;;4999718;28;48526;-81
2023/10/09 01:48:10;;;;;;;20.73;5.53;;;13.80;32.90;;;;;;5001398;28;46217;-79
2023/10/09 01:50:36;;;;;;;18.70;5.13;;;13.80;32.90;;;;;;5000489;28;46691;-81
2023/10/09 01:53:02;;;;;;;25.70;5.70;;;13.90;33.00;;;;;;5000993;28;46451;-82
2023/10/09 01:55:40;;;;;;;17.20;4.50;;;13.90;32.90;;;;;;5001918;28;46748;-79
2023/10/09 01:58:27;;;;;;;22.50;5.50;;;14.00;33.00;;;;;;5002264;28;46492;-77
2023/10/09 02:00:55;;;;;;;22.50;4.93;;;13.90;33.00;;;;;;4999351;28;46733;-81
2023/10/09 02:03:26;;;;;;;26.90;5.40;;;13.80;33.20;;;;;;5001771;28;46520;-82
2023/10/09 02:06:03;;;;;;;25.10;5.37;;;13.80;33.40;;;;;;4999569;28;46907;-85
2023/10/09 02:08:35;;;;;;;18.10;4.87;;;13.80;33.70;;;;;;5001523;28;46470;-78
2023/10/09 02:11:02;;;;;;;18.30;5.13;;;13.80;33.80;;;;;;5000921;28;46586;-79
2023/10/09 02:13:29;;;;;;;24.50;4.90;;;13.80;33.90;;;;;;4998566;28;47123;-78
2023/10/09 02:16:12;;;;;;;16.57;4.93;;;14.00;34.00;;;;;;4999699;28;46966;-80
2023/10/09 02:18:52;;;;;;;20.73;4.73;;;13.90;33.90;;;;;;4999268;28;46468;-80
2023/10/09 02:21:28;;;;;;;20.83;5.50;;;13.90;33.90;;;;;;5000564;28;46820;-80
2023/10/09 02:23:57;;;;;;;24.57;4.80;;;13.90;33.90;;;;;;5000333;28;46526;-80
2023/10/09 02:26:26;;;;;;;17.07;4.20;;;13.90;33.80;;;;;;5000334;28;47143;-79
2023/10/09 02:29:05;;;;;;;25.13;5.03;;;13.90;33.90;;;;;;4998654;28;46765;-81
2023/10/09 02:31:40;;;;;;;25.93;4.63;;;13.90;33.90;;;;;;4999090;28;46468;-81
2023/10/09 02:34:10;;;;;;;25.67;4.70;;;13.90;33.80;;;;;;4999172;28;46182;-80
2023/10/09 02:36:57;;;;;;;23.33;5.53;;;13.90;33.80;;;;;;5000206;28;47476;-79
2023/10/09 02:39:30;;;;;;;31.17;5.37;;;13.90;33.70;;;;;;5001185;28;47140;-79
2023/10/09 02:42:20;;;;;;;19.50;5.23;;;13.90;33.60;;;;;;5000375;28;46585;-80
2023/10/09 02:44:51;;;;;;;18.93;5.00;;;13.90;33.50;;;;;;4998375;28;46760;-79
2023/10/09 02:47:24;;;;;;;23.90;3.97;;;14.00;33.40;;;;;;5000122;28;47153;-81
2023/10/09 02:49:50;;;;;;;22.83;4.70;;;14.10;33.20;;;;;;4999341;28;46506;-81
2023/10/09 02:52:24;;;;;;;23.17;4.80;;;14.10;33.10;;;;;;5000396;28;46424;-82
2023/10/09 02:54:59;;;;;;;17.90;4.30;;;14.10;33.00;;;;;;4999469;28;48072;-81
2023/10/09 02:57:36;;;;;;;25.70;4.40;;;14.10;32.90;;;;;;4998856;28;46380;-81
2023/10/09 03:00:28;;;;;;;29.70;5.07;;;14.10;32.80;;;;;;5000865;28;46888;-81
2023/10/09 03:02:54;;;;;;;24.30;5.10;;;14.10;32.80;;;;;;4997864;28;46396;-80
2023/10/09 03:05:20;;;;;;;16.30;4.37;;;14.10;32.70;;;;;;5000677;28;46418;-81
2023/10/09 03:07:46;;;;;;;21.13;4.57;;;14.20;32.80;;;;;;4999448;28;47299;-79
2023/10/09 03:10:11;;;;;;;22.73;4.80;;;14.10;32.70;;;;;;5001248;28;46577;-81
2023/10/09 03:12:39;;;;;;;22.43;4.83;;;14.20;32.90;;;;;;5000572;28;46471;-81
2023/10/09 03:15:08;;;;;;;20.93;6.10;;;14.10;32.70;;;;;;4999316;28;46782;-81
2023/10/09 03:17:34;;;;;;;23.97;5.50;;;14.20;32.50;;;;;;5001229;28;47863;-81
2023/10/09 03:20:08;;;;;;;21.10;4.00;;;14.20;32.30;;;;;;5003014;28;46482;-81
2023/10/09 03:22:35;;;;;;;21.23;3.77;;;14.30;32.20;;;;;;5001420;28;46497;-82
2023/10/09 03:25:00;;;;;;;20.70;4.23;;;14.20;32.00;;;;;;5005634;28;46874;-81
2023/10/09 03:27:26;;;;;;;33.33;3.87;;;14.30;32.00;;;;;;4999151;28;46672;-78
2023/10/09 03:29:53;;;;;;;20.70;4.00;;;14.30;31.80;;;;;;4998347;28;46555;-81
2023/10/09 03:32:19;;;;;;;19.87;4.13;;;14.30;31.60;;;;;;4999001;28;46718;-80
2023/10/09 03:34:45;;;;;;;25.80;4.97;;;14.30;31.50;;;;;;4998234;28;46482;-81
2023/10/09 03:37:22;;;;;;;17.30;4.67;;;14.30;31.40;;;;;;4998367;28;47018;-80
2023/10/09 03:39:48;;;;;;;25.90;4.83;;;14.20;31.30;;;;;;5013510;28;46974;-81
2023/10/09 03:42:20;;;;;;;25.83;5.13;;;14.20;31.40;;;;;;4998228;28;46376;-81
2023/10/09 03:44:52;;;;;;;12.90;4.13;;;14.10;31.40;;;;;;5001635;28;46773;-81
2023/10/09 03:47:22;;;;;;;20.30;5.27;;;14.00;31.60;;;;;;5003405;28;47189;-81
2023/10/09 03:49:51;;;;;;;18.63;4.10;;;14.00;31.70;;;;;;5002020;28;46566;-81
2023/10/09 03:52:18;;;;;;;19.43;5.37;;;14.00;31.80;;;;;;5004117;28;46931;-80
2023/10/09 03:54:46;;;;;;;19.03;4.27;;;13.90;31.50;;;;;;4990418;28;46940;-80
2023/10/09 03:57:19;;;;;;;18.70;4.50;;;13.90;31.60;;;;;;5002196;28;48340;-80
2023/10/09 03:59:48;;;;;;;13.40;4.30;;;13.90;31.50;;;;;;5000766;28;46781;-80
2023/10/09 04:02:14;;;;;;;14.60;4.40;;;14.00;31.20;;;;;;5002401;28;46470;-80
2023/10/09 04:04:46;;;;;;;22.30;4.47;;;14.10;31.10;;;;;;5002410;28;46917;-78
2023/10/09 04:07:18;;;;;;;18.47;4.50;;;14.10;30.80;;;;;;5000112;28;46648;-79
2023/10/09 04:10:02;;;;;;;19.93;4.07;;;14.20;30.50;;;;;;5000850;28;46511;-79
2023/10/09 04:12:30;;;;;;;22.67;4.37;;;14.30;30.30;;;;;;4999662;28;47420;-80
2023/10/09 04:15:03;;;;;;;29.23;4.60;;;14.30;30.00;;;;;;4998896;28;46410;-79
2023/10/09 04:22:49;;;;;;;15.97;4.03;;;14.40;29.20;;;;;;5003353;28;46498;-80
2023/10/09 04:25:25;;;;;;;18.17;4.10;;;14.30;29.10;;;;;;5003787;28;46580;-81
2023/10/09 04:27:57;;;;;;;29.00;5.00;;;14.30;29.10;;;;;;5000838;28;46972;-81
2023/10/09 04:30:23;;;;;;;20.83;4.20;;;14.20;29.10;;;;;;5000174;28;46395;-79
2023/10/09 04:32:49;;;;;;;26.67;3.70;;;14.20;29.10;;;;;;4999885;28;46534;-79
2023/10/09 04:35:24;;;;;;;23.00;4.70;;;14.20;29.10;;;;;;5000726;28;46523;-80
2023/10/09 04:38:03;;;;;;;12.53;3.97;;;14.20;29.10;;;;;;5000145;28;48597;-81
2023/10/09 04:40:48;;;;;;;20.60;4.23;;;14.20;29.10;;;;;;4999603;28;46150;-80
2023/10/09 04:43:20;;;;;;;18.40;4.40;;;14.10;29.20;;;;;;5000315;28;45929;-81
2023/10/09 04:48:33;;;;;;;21.43;4.40;;;14.10;29.70;;;;;;4999841;28;46751;-80
2023/10/09 04:54:33;;;;;;;17.40;4.00;;;13.80;30.80;;;;;;4966196;28;46986;-82
2023/10/09 04:56:52;;;;;;;30.47;4.77;;;13.70;30.10;;;;;;4998129;28;46518;-81
2023/10/09 04:59:18;;;;;;;18.30;4.40;;;13.50;30.60;;;;;;5000393;28;48239;-81
2023/10/09 05:01:50;;;;;;;21.27;4.30;;;13.40;31.10;;;;;;4998258;28;46037;-82
2023/10/09 05:04:34;;;;;;;19.13;3.93;;;13.30;31.30;;;;;;5002314;28;46798;-82
2023/10/09 05:07:07;;;;;;;20.00;4.93;;;13.30;31.50;;;;;;5001469;28;46479;-81
2023/10/09 05:09:55;;;;;;;21.27;5.83;;;13.20;31.60;;;;;;5002341;28;46800;-82
2023/10/09 05:12:19;;;;;;;16.23;5.10;;;13.20;31.60;;;;;;5005077;28;46481;-83
2023/10/09 05:15:08;;;;;;;14.83;3.70;;;13.20;31.20;;;;;;5002175;28;46704;-81
2023/10/09 05:17:35;;;;;;;29.33;5.10;;;13.20;31.20;;;;;;5000224;28;46831;-81
2023/10/09 05:25:53;;;;;;;23.40;4.57;;;13.10;31.10;;;;;;4974603;28;46542;-80
2023/10/09 05:28:30;;;;;;;15.57;4.43;;;13.10;31.10;;;;;;4999596;28;46809;-81
2023/10/09 05:31:09;;;;;;;15.03;4.30;;;13.10;31.10;;;;;;5001171;28;47171;-82
2023/10/09 05:33:38;;;;;;;31.03;5.07;;;13.20;31.10;;;;;;4999752;28;46462;-81
2023/10/09 05:36:17;;;;;;;27.53;6.00;;;13.20;30.90;;;;;;4998069;28;46457;-81
2023/10/09 05:38:58;;;;;;;24.90;6.00;;;13.30;30.90;;;;;;4999672;28;46472;-78
2023/10/09 05:41:45;;;;;;;22.33;5.50;;;13.40;30.70;;;;;;4999042;28;47094;-80
2023/10/09 05:49:54;;;;;;;22.40;5.53;;;13.60;30.00;;;;;;4998416;28;47447;-79
2023/10/09 05:52:32;;;;;;;23.73;5.47;;;13.60;29.90;;;;;;4991682;28;46468;-78
2023/10/09 06:11:39;;;;;;;16.97;4.40;;;14.30;29.20;;;;;;5000610;28;46366;-81
2023/10/09 06:24:33;;;;;;;23.30;4.50;;;14.90;28.20;;;;;;4995792;28;46501;-85
2023/10/09 06:32:34;;;;;;;27.80;4.97;;;15.10;27.50;;;;;;4976179;28;45955;-81
2023/10/09 06:35:16;;;;;;;29.13;5.90;;;15.30;27.30;;;;;;4994986;28;46723;-82
2023/10/09 06:45:54;;;;;;;19.63;3.63;;;15.90;26.30;;;;;;4996571;28;47025;-79
2023/10/09 06:58:55;;;;;;;20.97;4.30;;;16.70;25.00;;;;;;4998370;28;46498;-83
2023/10/09 07:03:53;;;;;;;16.43;4.07;;;16.90;24.50;;;;;;5004249;28;46913;-81
2023/10/09 07:17:15;;;;;;;15.57;4.00;;;17.60;23.10;;;;;;4993708;28;46991;-81
2023/10/09 07:22:23;;;;;;;15.70;3.27;;;18.00;22.50;;;;;;4998077;28;46538;-81
2023/10/09 07:24:49;;;;;;;27.90;4.30;;;18.20;22.30;;;;;;4994587;28;46548;-80
2023/10/09 07:27:44;;;;;;;16.80;5.03;;;18.50;21.60;;;;;;4996632;28;46511;-80
2023/10/09 07:33:16;;;;;;;17.73;3.90;;;19.00;20.80;;;;;;4995038;28;46006;-78
2023/10/09 07:35:57;;;;;;;18.13;4.33;;;19.40;20.00;;;;;;4995053;28;46707;-81
2023/10/09 07:38:28;;;;;;;32.03;3.90;;;19.70;19.30;;;;;;4997289;28;46694;-79
2023/10/09 07:40:56;;;;;;;18.30;4.00;;;20.00;18.30;;;;;;4996372;28;46910;-79
2023/10/09 07:43:28;;;;;;;29.87;5.90;;;20.20;17.60;;;;;;4992451;28;46773;-81
2023/10/09 07:48:27;;;;;;;27.73;4.10;;;20.60;15.60;;;;;;4998160;28;46792;-81
2023/10/09 07:50:58;;;;;;;23.40;3.60;;;20.60;15.70;;;;;;4997095;28;46433;-78
2023/10/09 07:53:28;;;;;;;18.23;4.00;;;20.60;15.40;;;;;;4993889;28;46714;-79
2023/10/09 07:55:55;;;;;;;30.13;3.90;;;20.60;14.30;;;;;;4996485;28;46528;-81
2023/10/09 07:58:27;;;;;;;20.60;3.97;;;20.60;14.50;;;;;;4999366;28;46515;-80
2023/10/09 08:01:07;;;;;;;12.23;4.30;;;20.60;13.90;;;;;;4993611;28;46514;-79
2023/10/09 08:03:34;;;;;;;29.97;4.40;;;20.60;13.90;;;;;;4986156;28;47103;-80
2023/10/09 08:06:37;;;;;;;29.13;4.57;;;20.60;13.80;;;;;;4999522;28;46478;-82
2023/10/09 08:16:46;;;;;;;21.50;3.53;;;20.40;12.80;;;;;;4996179;28;46909;-80
2023/10/09 08:24:43;;;;;;;28.93;3.93;;;20.40;12.60;;;;;;4994664;28;46801;-79
2023/10/09 08:33:00;;;;;;;21.40;3.50;;;20.40;12.80;;;;;;4956103;28;46545;-81
2023/10/09 08:35:49;;;;;;;18.83;3.67;;;20.30;12.30;;;;;;4977176;28;46491;-81
2023/10/09 08:38:23;;;;;;;13.00;3.50;;;20.30;12.10;;;;;;5000623;28;47253;-81
2023/10/09 08:40:50;;;;;;;15.07;3.77;;;20.30;12.40;;;;;;4993847;28;48338;-82
2023/10/09 08:43:17;;;;;;;20.73;3.93;;;20.40;12.30;;;;;;4997553;28;46435;-79
2023/10/09 08:46:04;;;;;;;21.47;4.10;;;20.50;11.90;;;;;;5003320;28;46388;-83
2023/10/09 08:48:30;;;;;;;24.40;3.50;;;20.60;11.80;;;;;;4999849;28;46803;-80
2023/10/09 08:50:56;;;;;;;21.43;4.50;;;20.80;11.90;;;;;;5004571;28;46624;-78
2023/10/09 08:53:23;;;;;;;22.47;4.03;;;20.90;11.90;;;;;;4997464;28;46778;-78
2023/10/09 08:55:51;;;;;;;19.37;4.73;;;21.00;12.00;;;;;;4997841;28;46791;-79
2023/10/09 08:58:36;;;;;;;23.13;4.60;;;21.10;11.70;;;;;;5002417;28;46722;-79
2023/10/09 09:01:02;;;;;;;20.43;4.70;;;21.10;11.50;;;;;;4996972;28;48697;-81
2023/10/09 09:03:38;;;;;;;19.43;4.10;;;21.10;11.30;;;;;;4995279;28;47492;-79
2023/10/09 09:06:04;;;;;;;33.37;4.20;;;21.20;11.10;;;;;;4998906;28;46384;-81
2023/10/09 09:08:32;;;;;;;16.67;4.43;;;21.30;11.20;;;;;;4996926;28;46750;-79
2023/10/09 09:11:48;;;;;;;16.77;3.70;;;21.40;10.90;;;;;;4989404;28;48273;-79
2023/10/09 09:13:58;;;;;;;14.87;4.00;;;21.40;10.40;;;;;;4985987;28;46962;-78
2023/10/09 09:16:29;;;;;;;22.37;4.93;;;21.50;10.50;;;;;;4997894;28;46537;-79
2023/10/09 09:19:04;;;;;;;17.57;4.30;;;21.80;10.30;;;;;;4999168;28;46567;-78
2023/10/09 09:21:37;;;;;;;23.03;3.60;;;21.80;9.90;;;;;;4998960;28;46212;-80
2023/10/09 09:24:14;;;;;;;14.40;3.77;;;21.90;9.70;;;;;;4995695;28;47209;-80
2023/10/09 09:26:46;;;;;;;14.40;3.30;;;21.90;9.50;;;;;;4998509;28;46565;-79
2023/10/09 09:29:13;;;;;;;21.43;3.43;;;22.00;9.30;;;;;;5000576;28;45981;-80
2023/10/09 09:31:57;;;;;;;30.53;4.40;;;22.00;9.10;;;;;;4999476;28;46864;-79
2023/10/09 09:34:28;;;;;;;24.07;4.50;;;22.20;8.80;;;;;;4996076;28;46445;-80
2023/10/09 09:36:58;;;;;;;16.23;3.57;;;22.30;8.50;;;;;;4997393;28;47026;-79
2023/10/09 09:39:27;;;;;;;18.00;3.90;;;22.30;8.10;;;;;;5000944;28;46540;-77
2023/10/09 09:42:13;;;;;;;17.53;3.73;;;22.40;7.90;;;;;;4997920;28;46567;-78
2023/10/09 09:44:48;;;;;;;22.50;4.57;;;22.50;7.50;;;;;;4996586;28;47023;-79
2023/10/09 09:47:26;;;;;;;27.53;4.03;;;22.50;7.30;;;;;;4997400;28;46907;-80
2023/10/09 09:49:53;;;;;;;26.03;3.97;;;22.60;7.40;;;;;;4998133;28;46540;-78
2023/10/09 09:52:19;;;;;;;16.33;4.60;;;22.50;8.00;;;;;;4997125;28;46924;-81
2023/10/09 09:54:49;;;;;;;20.87;4.23;;;22.50;7.10;;;;;;4998574;28;46403;-81
2023/10/09 09:57:25;;;;;;;18.30;3.87;;;22.50;7.00;;;;;;4997838;28;46373;-81
2023/10/09 09:59:52;;;;;;;15.43;4.27;;;22.60;7.00;;;;;;4998187;28;46766;-80
2023/10/09 10:02:33;;;;;;;20.13;4.40;;;22.70;6.90;;;;;;4997869;28;47071;-79
2023/10/09 10:05:05;;;;;;;21.50;4.60;;;22.60;6.20;;;;;;4996312;28;46667;-79
2023/10/09 10:07:41;;;;;;;30.53;4.40;;;22.60;6.40;;;;;;4998894;28;46774;-80
2023/10/09 10:10:47;;;;;;;30.37;4.30;;;22.70;6.30;;;;;;4997681;28;46464;-80
2023/10/09 10:13:15;;;;;;;18.80;3.50;;;22.90;6.00;;;;;;4996431;28;46578;-80
2023/10/09 10:15:59;;;;;;;18.10;3.90;;;22.80;5.70;;;;;;4997677;28;46528;-80
2023/10/09 10:18:32;;;;;;;9.70;3.10;;;22.90;5.80;;;;;;4997653;28;46844;-82
2023/10/09 10:24:11;;;;;;;18.07;3.43;;;23.10;5.40;;;;;;4994839;28;47146;-81
2023/10/09 10:26:37;;;;;;;20.33;4.50;;;23.20;5.50;;;;;;4999868;28;46517;-82
2023/10/09 10:29:22;;;;;;;24.93;4.33;;;23.10;5.20;;;;;;4998985;28;46928;-80
2023/10/09 10:31:55;;;;;;;19.73;3.87;;;23.20;5.10;;;;;;4999102;28;46838;-81
2023/10/09 10:34:23;;;;;;;13.40;4.13;;;23.30;5.00;;;;;;4998785;28;47756;-80
2023/10/09 10:36:52;;;;;;;22.80;3.90;;;23.40;5.10;;;;;;5000899;28;46776;-85
2023/10/09 10:41:54;;;;;;;25.70;4.27;;;23.50;4.80;;;;;;5001154;28;46944;-82
2023/10/09 10:44:34;;;;;;;19.83;4.30;;;23.60;5.30;;;;;;4994675;28;48246;-80
2023/10/09 10:47:00;;;;;;;19.57;4.00;;;23.70;4.20;;;;;;4997739;28;46443;-82
2023/10/09 10:49:36;;;;;;;21.93;4.27;;;23.70;4.30;;;;;;5001454;28;46506;-84
2023/10/09 10:52:15;;;;;;;15.30;3.87;;;23.70;4.20;;;;;;4996914;28;46532;-84
2023/10/09 10:57:28;;;;;;;20.97;4.13;;;23.90;4.70;;;;;;4998711;28;47552;-81
2023/10/09 11:00:12;;;;;;;27.93;4.50;;;24.00;2.70;;;;;;4996594;28;46810;-85
2023/10/09 11:02:40;;;;;;;25.73;4.37;;;24.00;2.80;;;;;;4995348;28;46468;-82
2023/10/09 11:05:23;;;;;;;15.33;3.60;;;24.20;2.90;;;;;;4996300;28;46440;-82
2023/10/09 11:07:52;;;;;;;14.50;3.73;;;24.40;3.00;;;;;;4996061;28;46779;-82
2023/10/09 11:10:27;;;;;;;23.50;4.83;;;24.40;3.00;;;;;;4998153;28;46552;-82
2023/10/09 11:15:44;;;;;;;19.33;4.53;;;24.70;1.90;;;;;;4996354;28;46426;-83
2023/10/09 11:18:20;;;;;;;18.30;4.00;;;24.60;1.40;;;;;;4996798;28;46451;-85
2023/10/09 11:21:23;;;;;;;21.70;4.20;;;24.90;1.40;;;;;;4999981;28;46719;-83
2023/10/09 11:26:27;;;;;;;20.87;4.97;;;24.90;1.20;;;;;;4999376;28;47083;-81
2023/10/09 11:29:29;;;;;;;20.67;4.03;;;24.80;1.10;;;;;;4996439;28;46609;-83
2023/10/09 11:32:22;;;;;;;19.20;4.17;;;24.70;1.20;;;;;;4997377;28;46803;-81
2023/10/09 11:34:52;;;;;;;23.40;4.93;;;24.30;1.00;;;;;;4998597;28;46530;-79
2023/10/09 11:37:38;;;;;;;11.13;3.10;;;24.20;1.60;;;;;;4994483;28;46704;-81
2023/10/09 11:40:21;;;;;;;22.00;3.47;;;24.10;1.80;;;;;;4996338;28;46713;-83
2023/10/09 11:42:49;;;;;;;22.83;4.17;;;24.10;1.90;;;;;;4999003;28;45944;-83
2023/10/09 11:45:28;;;;;;;25.77;4.97;;;23.80;1.40;;;;;;4997393;28;46633;-83
2023/10/09 11:47:57;;;;;;;35.77;5.60;;;23.60;1.50;;;;;;4997459;28;49486;-84
2023/10/09 11:50:51;;;;;;;29.43;5.70;;;23.40;1.70;;;;;;4997994;28;46537;-83
2023/10/09 11:53:32;;;;;;;28.93;3.93;;;23.20;2.20;;;;;;4997124;28;46575;-82
2023/10/09 11:55:58;;;;;;;16.33;3.53;;;23.10;2.10;;;;;;4996691;28;46635;-87
2023/10/09 11:58:24;;;;;;;24.47;4.10;;;23.10;2.10;;;;;;5000377;28;46497;-82
2023/10/09 12:01:04;;;;;;;18.43;4.40;;;23.00;2.00;;;;;;5000147;28;46453;-83
2023/10/09 12:03:31;;;;;;;17.10;3.50;;;22.90;2.00;;;;;;5001568;28;46582;-80
2023/10/09 12:06:12;;;;;;;14.27;4.13;;;22.80;1.90;;;;;;5001306;28;46851;-80
2023/10/09 12:08:40;;;;;;;21.67;4.23;;;22.70;2.40;;;;;;4999918;28;48609;-83
2023/10/09 12:11:08;;;;;;;19.23;3.80;;;22.70;2.60;;;;;;5000999;28;46603;-84
2023/10/09 12:13:33;;;;;;;27.23;4.50;;;22.80;2.80;;;;;;5000929;28;46737;-83
2023/10/09 12:15:59;;;;;;;23.40;4.00;;;22.80;3.10;;;;;;5017331;28;47522;-83
2023/10/09 12:18:25;;;;;;;23.53;4.10;;;22.80;3.20;;;;;;5001757;28;46443;-79
2023/10/09 12:20:52;;;;;;;30.70;5.00;;;22.70;3.30;;;;;;4999612;28;46631;-84
2023/10/09 12:23:20;;;;;;;24.87;4.23;;;22.80;3.40;;;;;;4999735;28;46845;-84
2023/10/09 12:25:45;;;;;;;23.33;3.97;;;22.80;3.40;;;;;;5001689;28;46770;-82
2023/10/09 12:28:12;;;;;;;20.10;4.63;;;22.80;3.60;;;;;;5003541;28;47947;-83
2023/10/09 12:30:41;;;;;;;14.40;3.60;;;22.50;3.40;;;;;;5004240;28;46524;-81
2023/10/09 12:33:09;;;;;;;15.50;4.03;;;22.30;3.90;;;;;;5000756;28;46554;-83
2023/10/09 12:35:38;;;;;;;20.40;4.43;;;22.20;4.20;;;;;;5000847;28;46454;-82
2023/10/09 12:38:12;;;;;;;19.23;4.10;;;22.10;4.20;;;;;;4999970;28;46642;-81
2023/10/09 12:40:41;;;;;;;21.40;5.00;;;22.10;4.30;;;;;;5000967;28;46395;-81
2023/10/09 12:43:15;;;;;;;22.47;4.43;;;22.00;4.50;;;;;;4999704;28;46795;-83
2023/10/09 12:45:42;;;;;;;13.00;3.73;;;22.00;4.50;;;;;;5001094;28;46995;-83
2023/10/09 12:48:09;;;;;;;18.50;4.40;;;22.00;4.80;;;;;;4996304;28;47961;-83
2023/10/09 12:50:41;;;;;;;26.43;3.90;;;21.90;5.10;;;;;;4999614;28;46242;-80
2023/10/09 12:53:08;;;;;;;18.83;4.40;;;21.80;5.40;;;;;;5001153;28;46737;-78
2023/10/09 12:55:41;;;;;;;33.70;4.27;;;21.70;5.60;;;;;;4999344;28;46558;-78
2023/10/09 12:58:09;;;;;;;19.30;4.60;;;21.70;5.80;;;;;;4999971;28;46462;-82
2023/10/09 13:00:43;;;;;;;17.60;4.37;;;21.70;5.90;;;;;;4999834;28;46121;-82
2023/10/09 13:03:18;;;;;;;21.13;4.33;;;21.70;6.10;;;;;;4999315;28;46552;-82
2023/10/09 13:05:52;;;;;;;24.07;4.20;;;21.60;6.10;;;;;;5000060;28;47234;-80
2023/10/09 13:08:34;;;;;;;26.03;5.40;;;21.70;6.20;;;;;;5001212;28;47069;-80
2023/10/09 13:11:10;;;;;;;27.17;4.00;;;21.70;6.20;;;;;;5001801;28;46567;-83
2023/10/09 13:13:40;;;;;;;22.80;4.00;;;21.70;6.30;;;;;;4998825;28;46995;-82
2023/10/09 13:16:25;;;;;;;16.33;3.60;;;21.70;6.40;;;;;;4999559;28;46477;-81
2023/10/09 13:18:56;;;;;;;29.90;5.00;;;21.70;6.50;;;;;;4998848;28;49193;-79
2023/10/09 13:21:31;;;;;;;15.17;3.90;;;21.70;6.70;;;;;;5000014;28;46492;-81
2023/10/09 13:24:00;;;;;;;25.20;4.10;;;21.70;6.70;;;;;;4998458;28;45876;-81
2023/10/09 13:26:29;;;;;;;19.23;4.27;;;21.60;6.70;;;;;;4997775;28;46267;-81
2023/10/09 13:28:57;;;;;;;16.00;4.33;;;21.50;6.90;;;;;;4999275;28;47589;-83
2023/10/09 13:31:27;;;;;;;31.13;4.40;;;21.50;7.20;;;;;;4999217;28;46394;-80
2023/10/09 13:33:56;;;;;;;22.50;4.57;;;21.40;7.50;;;;;;4997470;28;46454;-80
2023/10/09 13:36:31;;;;;;;15.50;4.90;;;21.30;8.70;;;;;;4998237;28;46733;-80
2023/10/09 13:41:46;;;;;;;20.30;4.10;;;21.30;8.10;;;;;;4997640;28;46514;-81
2023/10/09 13:44:12;;;;;;;18.43;4.80;;;21.30;8.10;;;;;;4996187;28;46492;-78
2023/10/09 13:46:41;;;;;;;25.67;3.90;;;21.40;8.30;;;;;;4996400;28;46439;-79
2023/10/09 13:49:13;;;;;;;21.10;4.00;;;21.40;8.50;;;;;;4993651;28;46645;-81
2023/10/09 13:51:46;;;;;;;26.50;4.70;;;21.50;8.60;;;;;;5000903;28;46467;-80
2023/10/09 13:54:28;;;;;;;27.33;4.60;;;21.60;8.60;;;;;;5001045;28;46433;-80
2023/10/09 13:56:54;;;;;;;39.47;5.17;;;21.80;8.40;;;;;;5005451;28;46986;-77
2023/10/09 13:59:22;;;;;;;30.83;4.23;;;22.00;8.40;;;;;;5003442;28;46834;-81
2023/10/09 14:01:49;;;;;;;24.40;4.73;;;21.90;8.30;;;;;;5004434;28;46893;-82
2023/10/09 14:04:20;;;;;;;16.33;3.53;;;21.90;8.50;;;;;;5001731;28;46147;-77
2023/10/09 14:06:47;;;;;;;27.63;4.57;;;21.90;8.70;;;;;;5001067;28;46812;-79
2023/10/09 14:09:27;;;;;;;27.27;5.20;;;21.90;8.70;;;;;;4996202;28;46664;-78
2023/10/09 14:12:06;;;;;;;23.33;4.30;;;21.90;8.80;;;;;;5004213;28;46638;-81
2023/10/09 14:15:11;;;;;;;29.67;4.70;;;21.90;8.80;;;;;;4996157;28;46913;-80
2023/10/09 14:17:29;;;;;;;22.13;4.77;;;21.80;9.10;;;;;;4996762;28;46571;-80
2023/10/09 14:20:25;;;;;;;14.60;3.70;;;21.70;9.10;;;;;;4999986;28;48142;-79
2023/10/09 14:22:42;;;;;;;18.10;4.27;;;21.80;9.10;;;;;;4997033;28;46561;-80
2023/10/09 14:25:14;;;;;;;30.83;3.90;;;21.80;8.80;;;;;;4996462;28;46920;-80
2023/10/09 14:27:40;;;;;;;20.83;3.60;;;21.90;8.60;;;;;;4996806;28;46217;-79
2023/10/09 14:30:12;;;;;;;22.43;4.20;;;22.00;8.60;;;;;;4992918;28;49328;-79
2023/10/09 14:32:47;;;;;;;20.37;4.67;;;22.10;8.40;;;;;;4997296;28;46317;-79
2023/10/09 14:35:13;;;;;;;37.70;4.97;;;22.10;8.20;;;;;;4994550;28;46665;-79
2023/10/09 14:37:39;;;;;;;17.53;4.47;;;22.10;8.20;;;;;;4996157;28;46476;-78
2023/10/09 14:40:12;;;;;;;27.17;4.10;;;22.10;8.20;;;;;;4996400;28;48514;-80
2023/10/09 14:42:43;;;;;;;18.43;3.90;;;22.00;8.30;;;;;;4990738;28;46416;-78
2023/10/09 14:45:15;;;;;;;26.77;4.63;;;22.00;8.40;;;;;;4995229;28;46487;-76
2023/10/09 14:47:41;;;;;;;20.43;4.60;;;21.90;8.40;;;;;;4983584;28;47514;-78
2023/10/09 14:50:09;;;;;;;18.40;4.73;;;21.80;8.40;;;;;;4998190;28;48573;-79
2023/10/09 14:52:38;;;;;;;21.53;4.70;;;21.80;8.40;;;;;;4993746;28;47072;-76
2023/10/09 14:55:05;;;;;;;22.00;4.90;;;21.70;8.60;;;;;;4996339;28;46509;-77
2023/10/09 14:57:33;;;;;;;26.10;4.33;;;21.70;8.70;;;;;;4995648;28;46841;-77
2023/10/09 15:00:07;;;;;;;23.27;4.03;;;21.60;8.80;;;;;;4997243;28;46532;-81
2023/10/09 15:02:33;;;;;;;24.03;4.00;;;21.60;9.10;;;;;;4995161;28;46803;-78
2023/10/09 15:04:59;;;;;;;20.67;4.50;;;21.50;9.20;;;;;;4993261;28;46801;-78
2023/10/09 15:07:24;;;;;;;30.10;5.50;;;21.50;9.50;;;;;;4992909;28;46823;-78
2023/10/09 15:09:51;;;;;;;15.77;4.40;;;21.40;9.50;;;;;;4995500;28;46807;-79
2023/10/09 15:12:16;;;;;;;24.60;5.70;;;21.40;9.50;;;;;;4993530;28;46399;-78
2023/10/09 15:14:43;;;;;;;18.70;3.93;;;21.50;9.70;;;;;;4991971;28;46220;-82
2023/10/09 15:17:08;;;;;;;19.30;4.77;;;21.40;9.60;;;;;;4995335;28;46572;-79
2023/10/09 15:19:34;;;;;;;17.30;5.20;;;21.40;9.70;;;;;;4996536;28;47048;-80